createdAt,value
2024-02-05T00:00:21.785Z,9.09
2024-02-05T00:05:23.222Z,9.21
2024-02-05T00:10:24.560Z,8.91
2024-02-05T00:15:25.854Z,8.99
2024-02-05T00:20:27.109Z,8.75
2024-02-05T00:25:28.589Z,8.76
2024-02-05T00:30:30.037Z,8.76
2024-02-05T00:35:31.289Z,8.71
2024-02-05T00:40:32.946Z,8.67
2024-02-05T00:45:34.283Z,8.82
2024-02-05T00:50:35.633Z,8.60
2024-02-05T00:55:36.860Z,8.65
2024-02-05T01:00:38.202Z,8.40
2024-02-05T01:05:39.784Z,8.29
2024-02-05T01:10:41.264Z,8.32
2024-02-05T01:15:42.616Z,8.33
2024-02-05T01:20:44.935Z,8.38
2024-02-05T01:25:46.225Z,8.33
2024-02-05T01:30:47.465Z,8.40
2024-02-05T01:35:48.742Z,8.43
2024-02-05T01:40:50.502Z,8.43
2024-02-05T01:45:51.777Z,8.42
2024-02-05T01:50:53.341Z,8.46
2024-02-05T01:55:54.671Z,8.35
2024-02-05T02:00:55.973Z,8.26
2024-02-05T02:05:57.272Z,8.23
2024-02-05T02:10:58.493Z,8.24
2024-02-05T02:15:59.875Z,8.23
2024-02-05T02:21:03.807Z,8.21
2024-02-05T02:26:05.171Z,8.13
2024-02-05T02:31:06.515Z,8.29
2024-02-05T02:36:07.860Z,8.18
2024-02-05T02:41:09.155Z,8.16
2024-02-05T02:46:10.562Z,8.23
2024-02-05T02:51:11.825Z,8.24
2024-02-05T02:56:13.126Z,8.28
2024-02-05T03:01:14.518Z,8.35
2024-02-05T03:06:15.918Z,8.27
2024-02-05T03:11:17.181Z,8.16
2024-02-05T03:16:18.724Z,8.27
2024-02-05T03:21:20.019Z,8.39
2024-02-05T03:26:21.289Z,8.40
2024-02-05T03:31:22.590Z,8.42
2024-02-05T03:36:24.156Z,8.41
2024-02-05T03:41:25.406Z,8.36
2024-02-05T03:46:26.711Z,8.29
2024-02-05T03:51:27.974Z,8.30
2024-02-05T03:56:29.279Z,8.38
2024-02-05T04:01:31.404Z,8.61
2024-02-05T04:06:32.864Z,8.40
2024-02-05T04:11:34.475Z,8.45
2024-02-05T04:16:35.774Z,8.90
2024-02-05T04:21:37.076Z,8.74
2024-02-05T04:26:38.351Z,8.65
2024-02-05T04:31:39.579Z,8.60
2024-02-05T04:36:40.839Z,8.72
2024-02-05T04:41:42.156Z,8.83
2024-02-05T04:46:43.429Z,8.50
2024-02-05T04:51:44.699Z,8.70
2024-02-05T04:56:46.399Z,8.68
2024-02-05T05:01:47.794Z,8.70
2024-02-05T05:06:49.178Z,8.64
2024-02-05T05:11:50.487Z,8.51
2024-02-05T05:16:51.729Z,8.48
2024-02-05T05:21:53.084Z,8.39
2024-02-05T05:26:54.404Z,8.42
2024-02-05T05:31:55.669Z,8.61
2024-02-05T05:36:56.971Z,8.56
2024-02-05T05:41:58.543Z,8.68
2024-02-05T05:46:59.837Z,8.57
2024-02-05T05:52:01.130Z,8.55
2024-02-05T05:57:02.556Z,8.66
2024-02-05T06:02:04.072Z,8.51
2024-02-05T06:07:07.438Z,8.66
2024-02-05T06:12:08.705Z,8.50
2024-02-05T06:17:09.998Z,8.63
2024-02-05T06:22:12.094Z,8.31
2024-02-05T06:27:13.504Z,8.65
2024-02-05T06:32:14.694Z,8.64
2024-02-05T06:37:15.997Z,8.77
2024-02-05T06:42:17.375Z,8.51
2024-02-05T06:47:18.664Z,8.60
2024-02-05T06:52:21.143Z,8.65
2024-02-05T06:57:22.428Z,8.85
2024-02-05T07:02:24.541Z,8.95
2024-02-05T07:07:28.906Z,8.80
2024-02-05T07:12:30.571Z,8.85
2024-02-05T07:17:32.297Z,8.64
2024-02-05T07:22:33.616Z,8.43
2024-02-05T07:27:36.688Z,8.27
2024-02-05T07:32:37.991Z,8.42
2024-02-05T07:37:39.423Z,8.61
2024-02-05T07:42:41.005Z,8.47
2024-02-05T07:47:42.457Z,8.63
2024-02-05T07:52:43.843Z,8.57
2024-02-05T07:57:45.226Z,8.53
2024-02-05T08:02:46.478Z,8.50
2024-02-05T08:07:47.883Z,8.44
2024-02-05T08:12:49.214Z,8.50
2024-02-05T08:17:50.659Z,8.60
2024-02-05T08:22:53.338Z,8.54
2024-02-05T08:27:58.961Z,8.72
2024-02-05T08:33:00.539Z,8.80
2024-02-05T08:38:01.895Z,8.96
2024-02-05T08:43:03.382Z,8.80
2024-02-05T08:48:04.742Z,8.70
2024-02-05T08:53:06.027Z,8.62
2024-02-05T08:58:07.351Z,8.75
2024-02-05T09:03:12.004Z,8.76
2024-02-05T09:08:13.956Z,9.00
2024-02-05T09:13:17.328Z,9.02
2024-02-05T09:18:19.129Z,8.85
2024-02-05T09:23:20.529Z,8.96
2024-02-05T09:28:22.992Z,9.02
2024-02-05T09:33:24.485Z,9.00
2024-02-05T09:38:25.792Z,9.16
2024-02-05T09:43:27.103Z,9.13
2024-02-05T09:48:36.983Z,9.01
2024-02-05T09:53:41.785Z,9.19
2024-02-05T09:58:43.152Z,9.45
2024-02-05T10:03:44.487Z,9.58
2024-02-05T10:08:45.810Z,9.43
2024-02-05T10:13:47.037Z,9.39
2024-02-05T10:18:48.317Z,9.35
2024-02-05T10:23:49.602Z,9.40
2024-02-05T10:28:50.900Z,9.87
2024-02-05T10:33:52.345Z,9.55
2024-02-05T10:38:53.786Z,9.56
2024-02-05T10:43:55.076Z,9.78
2024-02-05T10:48:56.475Z,10.01
2024-02-05T10:53:57.742Z,10.27
2024-02-05T10:59:00.968Z,10.69
2024-02-05T11:04:03.587Z,10.19
2024-02-05T11:09:05.956Z,10.46
2024-02-05T11:14:09.309Z,10.15
2024-02-05T11:19:10.779Z,10.41
2024-02-05T11:24:12.947Z,10.27
2024-02-05T11:29:14.192Z,10.41
2024-02-05T11:34:17.959Z,10.73
2024-02-05T11:39:19.398Z,11.13
2024-02-05T11:44:20.671Z,10.85
2024-02-05T11:49:22.234Z,10.91
2024-02-05T11:54:23.582Z,10.87
2024-02-05T11:59:25.166Z,11.31
2024-02-05T12:04:26.773Z,11.52
2024-02-05T12:09:28.183Z,11.71
2024-02-05T12:14:32.195Z,12.16
2024-02-05T12:19:33.467Z,12.39
2024-02-05T12:24:34.847Z,13.12
2024-02-05T12:29:36.196Z,12.86
2024-02-05T12:34:37.801Z,12.95
2024-02-05T12:39:42.855Z,13.22
2024-02-05T12:44:50.099Z,12.99
2024-02-05T12:49:58.207Z,12.47
2024-02-05T12:54:59.727Z,13.22
2024-02-05T13:00:01.430Z,13.68
2024-02-05T13:10:04.730Z,14.00
2024-02-05T13:15:06.237Z,14.71
2024-02-05T13:20:07.544Z,14.74
2024-02-05T13:25:08.909Z,14.72
2024-02-05T13:30:10.293Z,15.76
2024-02-05T13:35:11.585Z,16.13
2024-02-05T13:40:13.442Z,16.18
2024-02-05T13:45:14.779Z,16.79
2024-02-05T13:50:16.044Z,16.62
2024-02-05T13:55:17.493Z,16.24
2024-02-05T14:00:18.869Z,15.86
2024-02-05T14:05:20.433Z,15.30
2024-02-05T14:10:21.862Z,15.61
2024-02-05T14:15:23.261Z,14.97
2024-02-05T14:20:24.892Z,14.50
2024-02-05T14:25:26.241Z,14.52
2024-02-05T14:30:27.536Z,14.50
2024-02-05T14:35:28.871Z,14.59
2024-02-05T14:40:30.360Z,14.35
2024-02-05T14:45:31.613Z,14.08
2024-02-05T14:50:33.078Z,13.74
2024-02-05T14:55:34.612Z,13.95
2024-02-05T15:00:35.988Z,13.87
2024-02-05T15:05:37.379Z,13.39
2024-02-05T15:10:39.141Z,13.14
2024-02-05T15:15:40.542Z,13.07
2024-02-05T15:20:42.395Z,12.87
2024-02-05T15:25:43.705Z,12.78
2024-02-05T15:30:45.070Z,12.55
2024-02-05T15:35:47.856Z,12.45
2024-02-05T15:40:49.181Z,12.13
2024-02-05T15:45:50.444Z,11.91
2024-02-05T15:50:52.055Z,11.94
2024-02-05T15:55:54.445Z,11.56
2024-02-05T16:00:56.228Z,11.35
2024-02-05T16:05:59.430Z,11.53
2024-02-05T16:11:00.865Z,11.60
2024-02-05T16:16:02.153Z,11.40
2024-02-05T16:21:03.562Z,11.29
2024-02-05T16:26:05.111Z,11.14
2024-02-05T16:31:06.506Z,11.03
2024-02-05T16:36:07.793Z,10.97
2024-02-05T16:41:11.066Z,10.91
2024-02-05T16:46:13.204Z,10.83
2024-02-05T16:51:16.399Z,11.07
2024-02-05T16:56:17.710Z,10.94
2024-02-05T17:01:19.678Z,10.96
2024-02-05T17:06:21.083Z,11.07
2024-02-05T17:11:23.065Z,10.80
2024-02-05T17:16:24.406Z,10.92
2024-02-05T17:21:25.738Z,10.94
2024-02-05T17:26:26.939Z,10.81
2024-02-05T17:31:28.171Z,10.21
2024-02-05T17:36:29.428Z,9.91
2024-02-05T17:41:31.263Z,9.70
2024-02-05T17:46:35.103Z,9.39
2024-02-05T17:51:36.383Z,9.43
2024-02-05T17:56:38.428Z,9.64
2024-02-05T18:01:39.768Z,9.34
2024-02-05T18:06:41.085Z,9.46
2024-02-05T18:11:42.526Z,9.22
2024-02-05T18:16:43.809Z,9.00
2024-02-05T18:21:45.277Z,8.95
2024-02-05T18:26:46.752Z,9.38
2024-02-05T18:31:52.561Z,9.48
2024-02-05T18:36:53.842Z,9.61
2024-02-05T18:41:55.147Z,9.78
2024-02-05T18:46:57.585Z,9.96
2024-02-05T18:52:03.732Z,10.12
2024-02-05T18:57:06.218Z,10.00
2024-02-05T19:02:07.636Z,9.09
2024-02-05T19:07:08.965Z,9.07
2024-02-05T19:12:10.338Z,8.81
2024-02-05T19:17:11.613Z,9.04
2024-02-05T19:22:13.027Z,8.90
2024-02-05T19:27:14.326Z,8.94
2024-02-05T19:32:16.593Z,8.48
2024-02-05T19:37:17.931Z,8.13
2024-02-05T19:42:19.199Z,7.91
2024-02-05T19:47:20.523Z,8.14
2024-02-05T19:52:22.570Z,8.14
2024-02-05T19:57:23.831Z,8.01
2024-02-05T20:02:25.114Z,7.89
2024-02-05T20:07:26.627Z,7.92
2024-02-05T20:12:27.950Z,8.01
2024-02-05T20:17:29.279Z,8.26
2024-02-05T20:22:30.690Z,8.16
2024-02-05T20:27:33.618Z,7.98
2024-02-05T20:32:35.094Z,8.04
2024-02-05T20:37:36.521Z,7.95
2024-02-05T20:42:37.775Z,7.60
2024-02-05T20:47:39.006Z,7.66
2024-02-05T20:52:40.368Z,7.10
2024-02-05T20:57:41.727Z,7.44
2024-02-05T21:02:42.993Z,7.09
2024-02-05T21:07:44.312Z,7.15
2024-02-05T21:12:47.551Z,7.14
2024-02-05T21:17:48.831Z,7.17
2024-02-05T21:22:50.140Z,7.24
2024-02-05T21:27:51.468Z,6.87
2024-02-05T21:32:52.779Z,6.93
2024-02-05T21:37:54.008Z,6.78
2024-02-05T21:42:55.281Z,6.64
2024-02-05T21:47:56.624Z,6.38
2024-02-05T21:52:57.952Z,6.57
2024-02-05T21:57:59.192Z,6.19
2024-02-05T22:03:00.667Z,6.35
2024-02-05T22:08:03.650Z,6.36
2024-02-05T22:13:04.930Z,5.99
2024-02-05T22:18:06.346Z,5.98
2024-02-05T22:23:07.672Z,6.29
2024-02-05T22:28:08.939Z,5.93
2024-02-05T22:33:10.448Z,5.71
2024-02-05T22:38:11.677Z,5.59
2024-02-05T22:43:15.932Z,5.47
2024-02-05T22:48:19.108Z,5.65
2024-02-05T22:53:20.430Z,5.52
2024-02-05T22:58:21.677Z,5.97
2024-02-05T23:03:22.941Z,5.99
2024-02-05T23:08:24.224Z,6.13
2024-02-05T23:13:25.530Z,5.93
2024-02-05T23:18:26.912Z,5.83
2024-02-05T23:23:29.224Z,5.78
2024-02-05T23:28:30.646Z,5.39
2024-02-05T23:33:32.253Z,5.57
2024-02-05T23:38:33.723Z,5.44
2024-02-05T23:43:34.945Z,5.23
2024-02-05T23:48:36.322Z,5.53
2024-02-05T23:53:37.711Z,5.54
2024-02-05T23:58:39.083Z,5.22
